sensor_id;sensor_type;location;lat;lon;timestamp;P1;durP1;ratioP1;P2;durP2;ratioP2
17564;SDS011;62994;52.126;5.596;2023-06-14T00:00:38;5.88;;;3.13;;
17564;SDS011;62994;52.126;5.596;2023-06-14T00:03:06;2.70;;;2.53;;
17564;SDS011;62994;52.126;5.596;2023-06-14T00:05:42;9.38;;;2.92;;
17564;SDS011;62994;52.126;5.596;2023-06-14T00:08:11;6.40;;;2.90;;
17564;SDS011;62994;52.126;5.596;2023-06-14T00:10:38;5.60;;;2.78;;
17564;SDS011;62994;52.126;5.596;2023-06-14T00:13:07;3.85;;;2.97;;
17564;SDS011;62994;52.126;5.596;2023-06-14T00:15:35;3.17;;;2.85;;
17564;SDS011;62994;52.126;5.596;2023-06-14T00:18:02;3.88;;;3.05;;
17564;SDS011;62994;52.126;5.596;2023-06-14T00:20:30;3.30;;;3.00;;
17564;SDS011;62994;52.126;5.596;2023-06-14T00:22:58;3.97;;;2.70;;
17564;SDS011;62994;52.126;5.596;2023-06-14T00:25:25;2.90;;;2.60;;
17564;SDS011;62994;52.126;5.596;2023-06-14T00:27:55;2.88;;;2.67;;
17564;SDS011;62994;52.126;5.596;2023-06-14T00:30:23;4.47;;;2.72;;
17564;SDS011;62994;52.126;5.596;2023-06-14T00:32:57;3.38;;;2.58;;
17564;SDS011;62994;52.126;5.596;2023-06-14T00:35:24;5.03;;;2.60;;
17564;SDS011;62994;52.126;5.596;2023-06-14T00:37:57;6.57;;;2.67;;
17564;SDS011;62994;52.126;5.596;2023-06-14T00:40:25;3.38;;;2.50;;
17564;SDS011;62994;52.126;5.596;2023-06-14T00:42:52;4.28;;;2.78;;
17564;SDS011;62994;52.126;5.596;2023-06-14T00:45:22;4.63;;;2.60;;
17564;SDS011;62994;52.126;5.596;2023-06-14T00:47:49;4.72;;;2.70;;
17564;SDS011;62994;52.126;5.596;2023-06-14T00:50:21;3.70;;;2.67;;
17564;SDS011;62994;52.126;5.596;2023-06-14T00:52:49;3.45;;;2.88;;
17564;SDS011;62994;52.126;5.596;2023-06-14T00:55:20;3.58;;;2.85;;
17564;SDS011;62994;52.126;5.596;2023-06-14T00:57:48;5.97;;;2.40;;
17564;SDS011;62994;52.126;5.596;2023-06-14T01:00:15;8.02;;;2.80;;
17564;SDS011;62994;52.126;5.596;2023-06-14T01:02:43;4.05;;;2.80;;
17564;SDS011;62994;52.126;5.596;2023-06-14T01:05:10;2.72;;;2.53;;
17564;SDS011;62994;52.126;5.596;2023-06-14T01:07:43;6.95;;;3.60;;
17564;SDS011;62994;52.126;5.596;2023-06-14T01:10:31;4.82;;;3.00;;
17564;SDS011;62994;52.126;5.596;2023-06-14T01:13:07;3.03;;;2.75;;
17564;SDS011;62994;52.126;5.596;2023-06-14T01:15:39;6.85;;;3.00;;
17564;SDS011;62994;52.126;5.596;2023-06-14T01:18:09;6.22;;;3.22;;
17564;SDS011;62994;52.126;5.596;2023-06-14T01:20:42;4.60;;;2.85;;
17564;SDS011;62994;52.126;5.596;2023-06-14T01:23:13;10.20;;;2.80;;
17564;SDS011;62994;52.126;5.596;2023-06-14T01:25:41;4.82;;;3.03;;
17564;SDS011;62994;52.126;5.596;2023-06-14T01:28:09;5.80;;;2.88;;
17564;SDS011;62994;52.126;5.596;2023-06-14T01:30:39;5.53;;;2.72;;
17564;SDS011;62994;52.126;5.596;2023-06-14T01:33:10;4.93;;;2.78;;
17564;SDS011;62994;52.126;5.596;2023-06-14T01:35:38;3.65;;;2.72;;
17564;SDS011;62994;52.126;5.596;2023-06-14T01:38:06;3.90;;;2.80;;
17564;SDS011;62994;52.126;5.596;2023-06-14T01:40:35;4.25;;;2.67;;
17564;SDS011;62994;52.126;5.596;2023-06-14T01:43:05;5.05;;;2.90;;
17564;SDS011;62994;52.126;5.596;2023-06-14T01:45:33;4.32;;;2.85;;
17564;SDS011;62994;52.126;5.596;2023-06-14T01:48:02;3.85;;;2.78;;
17564;SDS011;62994;52.126;5.596;2023-06-14T01:50:30;8.65;;;2.78;;
17564;SDS011;62994;52.126;5.596;2023-06-14T01:52:57;4.80;;;2.58;;
17564;SDS011;62994;52.126;5.596;2023-06-14T01:55:24;4.47;;;3.20;;
17564;SDS011;62994;52.126;5.596;2023-06-14T01:57:53;3.90;;;2.50;;
17564;SDS011;62994;52.126;5.596;2023-06-14T02:00:20;3.03;;;2.72;;
17564;SDS011;62994;52.126;5.596;2023-06-14T02:02:47;4.40;;;2.90;;
17564;SDS011;62994;52.126;5.596;2023-06-14T02:05:17;2.95;;;2.75;;
17564;SDS011;62994;52.126;5.596;2023-06-14T02:07:46;3.42;;;2.58;;
17564;SDS011;62994;52.126;5.596;2023-06-14T02:10:13;6.72;;;3.28;;
17564;SDS011;62994;52.126;5.596;2023-06-14T02:12:47;8.95;;;2.55;;
17564;SDS011;62994;52.126;5.596;2023-06-14T02:15:16;3.83;;;2.80;;
17564;SDS011;62994;52.126;5.596;2023-06-14T02:17:44;3.58;;;2.90;;
17564;SDS011;62994;52.126;5.596;2023-06-14T02:20:12;4.43;;;2.78;;
17564;SDS011;62994;52.126;5.596;2023-06-14T02:22:41;7.95;;;2.90;;
17564;SDS011;62994;52.126;5.596;2023-06-14T02:25:08;4.35;;;2.90;;
17564;SDS011;62994;52.126;5.596;2023-06-14T02:27:35;6.38;;;2.78;;
17564;SDS011;62994;52.126;5.596;2023-06-14T02:30:03;5.15;;;2.72;;
17564;SDS011;62994;52.126;5.596;2023-06-14T02:32:32;6.95;;;2.90;;
17564;SDS011;62994;52.126;5.596;2023-06-14T02:35:09;2.55;;;2.45;;
17564;SDS011;62994;52.126;5.596;2023-06-14T02:37:42;3.03;;;2.50;;
17564;SDS011;62994;52.126;5.596;2023-06-14T02:40:11;5.47;;;2.40;;
17564;SDS011;62994;52.126;5.596;2023-06-14T02:42:38;2.53;;;2.40;;
17564;SDS011;62994;52.126;5.596;2023-06-14T02:45:10;4.57;;;2.58;;
17564;SDS011;62994;52.126;5.596;2023-06-14T02:47:38;8.25;;;2.42;;
17564;SDS011;62994;52.126;5.596;2023-06-14T02:50:06;5.65;;;2.35;;
17564;SDS011;62994;52.126;5.596;2023-06-14T02:52:34;5.40;;;2.72;;
17564;SDS011;62994;52.126;5.596;2023-06-14T02:55:01;5.05;;;2.80;;
17564;SDS011;62994;52.126;5.596;2023-06-14T02:57:28;6.93;;;2.70;;
17564;SDS011;62994;52.126;5.596;2023-06-14T02:59:55;3.53;;;2.72;;
17564;SDS011;62994;52.126;5.596;2023-06-14T03:02:22;6.53;;;2.70;;
17564;SDS011;62994;52.126;5.596;2023-06-14T03:04:57;4.88;;;2.38;;
17564;SDS011;62994;52.126;5.596;2023-06-14T03:07:26;5.00;;;2.63;;
17564;SDS011;62994;52.126;5.596;2023-06-14T03:09:58;5.68;;;2.60;;
17564;SDS011;62994;52.126;5.596;2023-06-14T03:12:31;3.63;;;2.90;;
17564;SDS011;62994;52.126;5.596;2023-06-14T03:14:58;3.63;;;2.42;;
17564;SDS011;62994;52.126;5.596;2023-06-14T03:17:29;3.10;;;2.47;;
17564;SDS011;62994;52.126;5.596;2023-06-14T03:19:59;6.30;;;2.33;;
17564;SDS011;62994;52.126;5.596;2023-06-14T03:22:28;3.63;;;2.58;;
17564;SDS011;62994;52.126;5.596;2023-06-14T03:24:55;3.40;;;2.55;;
17564;SDS011;62994;52.126;5.596;2023-06-14T03:27:24;3.92;;;2.80;;
17564;SDS011;62994;52.126;5.596;2023-06-14T03:29:53;9.18;;;3.17;;
17564;SDS011;62994;52.126;5.596;2023-06-14T03:32:20;3.95;;;3.03;;
17564;SDS011;62994;52.126;5.596;2023-06-14T03:34:47;2.97;;;2.70;;
17564;SDS011;62994;52.126;5.596;2023-06-14T03:37:21;5.68;;;3.00;;
17564;SDS011;62994;52.126;5.596;2023-06-14T03:39:48;3.75;;;2.63;;
17564;SDS011;62994;52.126;5.596;2023-06-14T03:42:15;4.95;;;3.05;;
17564;SDS011;62994;52.126;5.596;2023-06-14T03:44:42;8.48;;;2.58;;
17564;SDS011;62994;52.126;5.596;2023-06-14T03:47:09;5.82;;;2.70;;
17564;SDS011;62994;52.126;5.596;2023-06-14T03:49:36;2.33;;;2.13;;
17564;SDS011;62994;52.126;5.596;2023-06-14T03:52:03;3.45;;;2.35;;
17564;SDS011;62994;52.126;5.596;2023-06-14T03:54:32;6.03;;;2.80;;
17564;SDS011;62994;52.126;5.596;2023-06-14T03:56:59;3.40;;;2.40;;
17564;SDS011;62994;52.126;5.596;2023-06-14T03:59:26;5.22;;;2.65;;
17564;SDS011;62994;52.126;5.596;2023-06-14T04:01:53;4.72;;;2.38;;
17564;SDS011;62994;52.126;5.596;2023-06-14T04:04:23;2.80;;;2.60;;
17564;SDS011;62994;52.126;5.596;2023-06-14T04:06:54;4.00;;;2.40;;
17564;SDS011;62994;52.126;5.596;2023-06-14T04:09:21;2.65;;;2.47;;
17564;SDS011;62994;52.126;5.596;2023-06-14T04:11:51;6.05;;;2.88;;
17564;SDS011;62994;52.126;5.596;2023-06-14T04:14:24;10.68;;;2.70;;
17564;SDS011;62994;52.126;5.596;2023-06-14T04:16:56;6.82;;;2.80;;
17564;SDS011;62994;52.126;5.596;2023-06-14T04:19:30;3.17;;;2.70;;
17564;SDS011;62994;52.126;5.596;2023-06-14T04:21:58;6.35;;;2.70;;
17564;SDS011;62994;52.126;5.596;2023-06-14T04:24:26;6.15;;;2.75;;
17564;SDS011;62994;52.126;5.596;2023-06-14T04:26:58;4.28;;;2.85;;
17564;SDS011;62994;52.126;5.596;2023-06-14T04:29:26;5.28;;;2.45;;
17564;SDS011;62994;52.126;5.596;2023-06-14T04:31:57;4.93;;;2.85;;
17564;SDS011;62994;52.126;5.596;2023-06-14T04:34:26;6.07;;;2.88;;
17564;SDS011;62994;52.126;5.596;2023-06-14T04:36:59;3.17;;;2.67;;
17564;SDS011;62994;52.126;5.596;2023-06-14T04:39:26;2.63;;;2.42;;
17564;SDS011;62994;52.126;5.596;2023-06-14T04:41:53;3.95;;;2.88;;
17564;SDS011;62994;52.126;5.596;2023-06-14T04:44:23;5.43;;;2.72;;
17564;SDS011;62994;52.126;5.596;2023-06-14T04:46:55;3.10;;;2.47;;
17564;SDS011;62994;52.126;5.596;2023-06-14T04:49:24;4.32;;;2.80;;
17564;SDS011;62994;52.126;5.596;2023-06-14T04:51:52;2.90;;;2.70;;
17564;SDS011;62994;52.126;5.596;2023-06-14T04:54:22;3.47;;;2.47;;
17564;SDS011;62994;52.126;5.596;2023-06-14T04:56:50;7.55;;;2.80;;
17564;SDS011;62994;52.126;5.596;2023-06-14T04:59:18;9.00;;;2.90;;
17564;SDS011;62994;52.126;5.596;2023-06-14T05:01:46;5.35;;;3.08;;
17564;SDS011;62994;52.126;5.596;2023-06-14T05:04:13;3.60;;;2.60;;
17564;SDS011;62994;52.126;5.596;2023-06-14T05:06:41;7.50;;;2.72;;
17564;SDS011;62994;52.126;5.596;2023-06-14T05:09:09;4.72;;;2.67;;
17564;SDS011;62994;52.126;5.596;2023-06-14T05:11:42;2.92;;;2.63;;
17564;SDS011;62994;52.126;5.596;2023-06-14T05:14:11;7.05;;;2.55;;
17564;SDS011;62994;52.126;5.596;2023-06-14T05:16:38;4.30;;;2.70;;
17564;SDS011;62994;52.126;5.596;2023-06-14T05:19:06;6.10;;;2.50;;
17564;SDS011;62994;52.126;5.596;2023-06-14T05:21:33;7.50;;;2.53;;
17564;SDS011;62994;52.126;5.596;2023-06-14T05:24:05;3.33;;;2.28;;
17564;SDS011;62994;52.126;5.596;2023-06-14T05:26:34;2.60;;;2.22;;
17564;SDS011;62994;52.126;5.596;2023-06-14T05:29:01;8.23;;;2.50;;
17564;SDS011;62994;52.126;5.596;2023-06-14T05:31:28;4.70;;;2.63;;
17564;SDS011;62994;52.126;5.596;2023-06-14T05:33:56;6.38;;;2.47;;
17564;SDS011;62994;52.126;5.596;2023-06-14T05:36:24;3.38;;;2.45;;
17564;SDS011;62994;52.126;5.596;2023-06-14T05:38:52;4.30;;;2.17;;
17564;SDS011;62994;52.126;5.596;2023-06-14T05:41:22;2.92;;;2.72;;
17564;SDS011;62994;52.126;5.596;2023-06-14T05:43:50;4.90;;;2.55;;
17564;SDS011;62994;52.126;5.596;2023-06-14T05:46:17;4.82;;;2.63;;
17564;SDS011;62994;52.126;5.596;2023-06-14T05:48:47;3.00;;;2.83;;
17564;SDS011;62994;52.126;5.596;2023-06-14T05:51:14;2.55;;;2.38;;
17564;SDS011;62994;52.126;5.596;2023-06-14T05:53:45;12.60;;;3.33;;
17564;SDS011;62994;52.126;5.596;2023-06-14T05:56:14;2.60;;;2.40;;
17564;SDS011;62994;52.126;5.596;2023-06-14T05:58:42;3.25;;;2.20;;
17564;SDS011;62994;52.126;5.596;2023-06-14T06:01:09;2.55;;;2.33;;
17564;SDS011;62994;52.126;5.596;2023-06-14T06:03:43;6.20;;;2.83;;
17564;SDS011;62994;52.126;5.596;2023-06-14T06:06:11;2.45;;;2.33;;
17564;SDS011;62994;52.126;5.596;2023-06-14T06:08:42;9.50;;;2.67;;
17564;SDS011;62994;52.126;5.596;2023-06-14T06:11:25;3.40;;;2.58;;
17564;SDS011;62994;52.126;5.596;2023-06-14T06:13:54;2.78;;;2.63;;
17564;SDS011;62994;52.126;5.596;2023-06-14T06:16:21;8.13;;;2.67;;
17564;SDS011;62994;52.126;5.596;2023-06-14T06:18:48;4.40;;;2.50;;
17564;SDS011;62994;52.126;5.596;2023-06-14T06:21:20;4.78;;;2.60;;
17564;SDS011;62994;52.126;5.596;2023-06-14T06:23:53;2.85;;;2.20;;
17564;SDS011;62994;52.126;5.596;2023-06-14T06:26:21;4.88;;;2.42;;
17564;SDS011;62994;52.126;5.596;2023-06-14T06:28:48;3.92;;;2.50;;
17564;SDS011;62994;52.126;5.596;2023-06-14T06:31:15;5.05;;;2.65;;
17564;SDS011;62994;52.126;5.596;2023-06-14T06:33:42;3.05;;;2.45;;
17564;SDS011;62994;52.126;5.596;2023-06-14T06:36:09;2.92;;;2.60;;
17564;SDS011;62994;52.126;5.596;2023-06-14T06:38:36;2.88;;;2.30;;
17564;SDS011;62994;52.126;5.596;2023-06-14T06:41:04;8.63;;;2.70;;
17564;SDS011;62994;52.126;5.596;2023-06-14T06:43:31;2.58;;;2.38;;
17564;SDS011;62994;52.126;5.596;2023-06-14T06:45:58;6.35;;;2.65;;
17564;SDS011;62994;52.126;5.596;2023-06-14T06:48:25;5.57;;;2.38;;
17564;SDS011;62994;52.126;5.596;2023-06-14T06:50:53;3.70;;;2.83;;
17564;SDS011;62994;52.126;5.596;2023-06-14T06:53:25;11.40;;;2.50;;
17564;SDS011;62994;52.126;5.596;2023-06-14T06:55:56;4.43;;;2.60;;
17564;SDS011;62994;52.126;5.596;2023-06-14T06:58:25;2.55;;;2.13;;
17564;SDS011;62994;52.126;5.596;2023-06-14T07:01:01;2.97;;;2.78;;
17564;SDS011;62994;52.126;5.596;2023-06-14T07:03:28;3.67;;;2.42;;
17564;SDS011;62994;52.126;5.596;2023-06-14T07:06:01;2.38;;;2.28;;
17564;SDS011;62994;52.126;5.596;2023-06-14T07:08:29;2.33;;;2.17;;
17564;SDS011;62994;52.126;5.596;2023-06-14T07:11:10;3.15;;;2.33;;
17564;SDS011;62994;52.126;5.596;2023-06-14T07:13:38;3.63;;;2.35;;
17564;SDS011;62994;52.126;5.596;2023-06-14T07:16:10;2.15;;;2.05;;
17564;SDS011;62994;52.126;5.596;2023-06-14T07:18:48;2.42;;;2.33;;
17564;SDS011;62994;52.126;5.596;2023-06-14T07:21:15;2.42;;;2.30;;
17564;SDS011;62994;52.126;5.596;2023-06-14T07:23:51;2.17;;;2.08;;
17564;SDS011;62994;52.126;5.596;2023-06-14T07:26:18;3.22;;;2.33;;
17564;SDS011;62994;52.126;5.596;2023-06-14T07:28:50;2.95;;;2.08;;
17564;SDS011;62994;52.126;5.596;2023-06-14T07:31:22;11.95;;;2.42;;
17564;SDS011;62994;52.126;5.596;2023-06-14T07:33:55;1.90;;;1.80;;
17564;SDS011;62994;52.126;5.596;2023-06-14T07:36:23;3.53;;;2.17;;
17564;SDS011;62994;52.126;5.596;2023-06-14T07:38:50;2.10;;;2.00;;
17564;SDS011;62994;52.126;5.596;2023-06-14T07:41:17;1.90;;;1.85;;
17564;SDS011;62994;52.126;5.596;2023-06-14T07:43:44;2.17;;;1.80;;
17564;SDS011;62994;52.126;5.596;2023-06-14T07:46:13;2.10;;;1.88;;
17564;SDS011;62994;52.126;5.596;2023-06-14T07:48:40;2.85;;;1.70;;
17564;SDS011;62994;52.126;5.596;2023-06-14T07:51:07;2.70;;;1.60;;
17564;SDS011;62994;52.126;5.596;2023-06-14T07:53:37;2.47;;;1.70;;
17564;SDS011;62994;52.126;5.596;2023-06-14T07:56:06;1.83;;;1.50;;
17564;SDS011;62994;52.126;5.596;2023-06-14T07:58:33;1.92;;;1.85;;
17564;SDS011;62994;52.126;5.596;2023-06-14T08:01:11;1.63;;;1.52;;
17564;SDS011;62994;52.126;5.596;2023-06-14T08:03:38;4.38;;;1.98;;
17564;SDS011;62994;52.126;5.596;2023-06-14T08:06:08;2.25;;;1.70;;
17564;SDS011;62994;52.126;5.596;2023-06-14T08:08:37;4.45;;;1.45;;
17564;SDS011;62994;52.126;5.596;2023-06-14T08:11:04;1.77;;;1.67;;
17564;SDS011;62994;52.126;5.596;2023-06-14T08:13:31;2.40;;;1.30;;
17564;SDS011;62994;52.126;5.596;2023-06-14T08:15:58;6.18;;;1.40;;
17564;SDS011;62994;52.126;5.596;2023-06-14T08:18:27;2.90;;;1.50;;
17564;SDS011;62994;52.126;5.596;2023-06-14T08:20:55;1.77;;;1.45;;
17564;SDS011;62994;52.126;5.596;2023-06-14T08:23:28;2.17;;;1.35;;
17564;SDS011;62994;52.126;5.596;2023-06-14T08:25:58;2.15;;;1.27;;
17564;SDS011;62994;52.126;5.596;2023-06-14T08:28:26;1.70;;;1.52;;
17564;SDS011;62994;52.126;5.596;2023-06-14T08:30:53;1.75;;;1.63;;
17564;SDS011;62994;52.126;5.596;2023-06-14T08:33:22;1.55;;;1.55;;
17564;SDS011;62994;52.126;5.596;2023-06-14T08:35:51;2.13;;;1.38;;
17564;SDS011;62994;52.126;5.596;2023-06-14T08:38:18;1.52;;;1.10;;
17564;SDS011;62994;52.126;5.596;2023-06-14T08:40:45;3.78;;;1.40;;
17564;SDS011;62994;52.126;5.596;2023-06-14T08:43:16;2.80;;;1.30;;
17564;SDS011;62994;52.126;5.596;2023-06-14T08:45:47;4.13;;;1.52;;
17564;SDS011;62994;52.126;5.596;2023-06-14T08:48:20;7.15;;;1.33;;
17564;SDS011;62994;52.126;5.596;2023-06-14T08:50:52;2.05;;;1.50;;
17564;SDS011;62994;52.126;5.596;2023-06-14T08:53:32;1.30;;;1.30;;
17564;SDS011;62994;52.126;5.596;2023-06-14T08:56:07;1.77;;;1.67;;
17564;SDS011;62994;52.126;5.596;2023-06-14T08:58:38;1.88;;;1.77;;
17564;SDS011;62994;52.126;5.596;2023-06-14T09:01:10;3.22;;;1.80;;
17564;SDS011;62994;52.126;5.596;2023-06-14T09:03:42;3.80;;;1.60;;
17564;SDS011;62994;52.126;5.596;2023-06-14T09:06:15;3.50;;;1.95;;
17564;SDS011;62994;52.126;5.596;2023-06-14T09:08:48;3.45;;;1.58;;
17564;SDS011;62994;52.126;5.596;2023-06-14T09:11:16;4.20;;;1.40;;
17564;SDS011;62994;52.126;5.596;2023-06-14T09:13:46;1.63;;;1.52;;
17564;SDS011;62994;52.126;5.596;2023-06-14T09:16:15;1.90;;;1.42;;
17564;SDS011;62994;52.126;5.596;2023-06-14T09:18:48;2.03;;;1.52;;
17564;SDS011;62994;52.126;5.596;2023-06-14T09:21:21;1.70;;;1.60;;
17564;SDS011;62994;52.126;5.596;2023-06-14T09:23:50;1.38;;;1.30;;
17564;SDS011;62994;52.126;5.596;2023-06-14T09:26:19;2.05;;;1.23;;
17564;SDS011;62994;52.126;5.596;2023-06-14T09:28:48;1.63;;;1.20;;
17564;SDS011;62994;52.126;5.596;2023-06-14T09:31:20;1.58;;;1.58;;
17564;SDS011;62994;52.126;5.596;2023-06-14T09:33:56;1.50;;;1.48;;
17564;SDS011;62994;52.126;5.596;2023-06-14T09:36:25;2.25;;;1.40;;
17564;SDS011;62994;52.126;5.596;2023-06-14T09:38:52;1.75;;;1.65;;
17564;SDS011;62994;52.126;5.596;2023-06-14T09:41:20;2.25;;;1.30;;
17564;SDS011;62994;52.126;5.596;2023-06-14T09:43:57;2.25;;;1.70;;
17564;SDS011;62994;52.126;5.596;2023-06-14T09:46:26;1.83;;;1.73;;
17564;SDS011;62994;52.126;5.596;2023-06-14T09:48:53;3.08;;;1.63;;
17564;SDS011;62994;52.126;5.596;2023-06-14T09:51:20;1.40;;;1.40;;
17564;SDS011;62994;52.126;5.596;2023-06-14T09:53:55;3.70;;;1.30;;
17564;SDS011;62994;52.126;5.596;2023-06-14T09:56:26;1.77;;;1.70;;
17564;SDS011;62994;52.126;5.596;2023-06-14T09:58:55;2.03;;;1.50;;
17564;SDS011;62994;52.126;5.596;2023-06-14T10:01:24;1.95;;;1.67;;
17564;SDS011;62994;52.126;5.596;2023-06-14T10:04:00;1.40;;;1.30;;
17564;SDS011;62994;52.126;5.596;2023-06-14T10:07:08;2.67;;;1.38;;
17564;SDS011;62994;52.126;5.596;2023-06-14T10:09:49;4.63;;;1.40;;
17564;SDS011;62994;52.126;5.596;2023-06-14T10:12:22;2.42;;;1.60;;
17564;SDS011;62994;52.126;5.596;2023-06-14T10:14:50;1.55;;;1.40;;
17564;SDS011;62994;52.126;5.596;2023-06-14T10:17:25;1.73;;;1.58;;
17564;SDS011;62994;52.126;5.596;2023-06-14T10:20:14;1.67;;;1.33;;
17564;SDS011;62994;52.126;5.596;2023-06-14T10:22:49;1.30;;;1.30;;
17564;SDS011;62994;52.126;5.596;2023-06-14T10:25:28;2.33;;;1.40;;
17564;SDS011;62994;52.126;5.596;2023-06-14T10:28:02;1.48;;;1.38;;
17564;SDS011;62994;52.126;5.596;2023-06-14T10:33:30;4.95;;;1.85;;
17564;SDS011;62994;52.126;5.596;2023-06-14T10:36:08;1.48;;;1.45;;
17564;SDS011;62994;52.126;5.596;2023-06-14T10:38:36;8.07;;;1.75;;
17564;SDS011;62994;52.126;5.596;2023-06-14T10:41:05;2.83;;;1.60;;
17564;SDS011;62994;52.126;5.596;2023-06-14T10:43:39;1.75;;;1.65;;
17564;SDS011;62994;52.126;5.596;2023-06-14T10:46:14;3.40;;;1.38;;
17564;SDS011;62994;52.126;5.596;2023-06-14T10:48:48;5.60;;;1.60;;
17564;SDS011;62994;52.126;5.596;2023-06-14T10:51:18;2.70;;;1.40;;
17564;SDS011;62994;52.126;5.596;2023-06-14T10:53:51;1.45;;;1.45;;
17564;SDS011;62994;52.126;5.596;2023-06-14T10:59:39;2.08;;;1.58;;
17564;SDS011;62994;52.126;5.596;2023-06-14T11:02:11;1.50;;;1.40;;
17564;SDS011;62994;52.126;5.596;2023-06-14T11:07:42;3.20;;;1.55;;
17564;SDS011;62994;52.126;5.596;2023-06-14T11:10:21;1.60;;;1.50;;
17564;SDS011;62994;52.126;5.596;2023-06-14T11:12:57;1.33;;;1.30;;
17564;SDS011;62994;52.126;5.596;2023-06-14T11:15:29;1.65;;;1.65;;
17564;SDS011;62994;52.126;5.596;2023-06-14T11:17:58;1.42;;;1.40;;
17564;SDS011;62994;52.126;5.596;2023-06-14T11:20:29;1.77;;;1.67;;
17564;SDS011;62994;52.126;5.596;2023-06-14T11:22:58;2.05;;;1.70;;
17564;SDS011;62994;52.126;5.596;2023-06-14T11:25:30;3.22;;;1.70;;
17564;SDS011;62994;52.126;5.596;2023-06-14T11:28:02;1.30;;;1.20;;
17564;SDS011;62994;52.126;5.596;2023-06-14T11:30:31;1.70;;;1.60;;
17564;SDS011;62994;52.126;5.596;2023-06-14T11:33:04;1.90;;;1.50;;
17564;SDS011;62994;52.126;5.596;2023-06-14T11:35:35;3.95;;;1.27;;
17564;SDS011;62994;52.126;5.596;2023-06-14T11:38:02;1.25;;;1.25;;
17564;SDS011;62994;52.126;5.596;2023-06-14T11:40:29;1.48;;;1.38;;
17564;SDS011;62994;52.126;5.596;2023-06-14T11:43:00;6.35;;;1.35;;
17564;SDS011;62994;52.126;5.596;2023-06-14T11:45:28;1.63;;;1.52;;
17564;SDS011;62994;52.126;5.596;2023-06-14T11:47:57;1.35;;;1.35;;
17564;SDS011;62994;52.126;5.596;2023-06-14T11:50:25;1.70;;;1.60;;
17564;SDS011;62994;52.126;5.596;2023-06-14T11:52:53;2.13;;;1.50;;
17564;SDS011;62994;52.126;5.596;2023-06-14T11:55:22;2.33;;;1.30;;
17564;SDS011;62994;52.126;5.596;2023-06-14T11:57:49;3.72;;;1.50;;
17564;SDS011;62994;52.126;5.596;2023-06-14T12:00:17;1.42;;;1.33;;
17564;SDS011;62994;52.126;5.596;2023-06-14T12:02:52;6.35;;;1.70;;
17564;SDS011;62994;52.126;5.596;2023-06-14T12:05:22;2.63;;;1.20;;
17564;SDS011;62994;52.126;5.596;2023-06-14T12:07:57;2.22;;;1.63;;
17564;SDS011;62994;52.126;5.596;2023-06-14T12:10:25;4.05;;;1.50;;
17564;SDS011;62994;52.126;5.596;2023-06-14T12:12:56;2.72;;;1.52;;
17564;SDS011;62994;52.126;5.596;2023-06-14T12:15:23;2.33;;;1.38;;
17564;SDS011;62994;52.126;5.596;2023-06-14T12:17:50;4.78;;;1.50;;
17564;SDS011;62994;52.126;5.596;2023-06-14T12:20:17;5.53;;;1.25;;
17564;SDS011;62994;52.126;5.596;2023-06-14T12:22:50;1.38;;;1.38;;
17564;SDS011;62994;52.126;5.596;2023-06-14T12:25:24;3.65;;;1.50;;
17564;SDS011;62994;52.126;5.596;2023-06-14T12:27:53;1.70;;;1.50;;
17564;SDS011;62994;52.126;5.596;2023-06-14T12:30:21;1.52;;;1.42;;
17564;SDS011;62994;52.126;5.596;2023-06-14T12:32:48;6.93;;;1.60;;
17564;SDS011;62994;52.126;5.596;2023-06-14T12:35:16;1.65;;;1.45;;
17564;SDS011;62994;52.126;5.596;2023-06-14T12:37:45;7.32;;;1.52;;
17564;SDS011;62994;52.126;5.596;2023-06-14T12:40:13;3.45;;;1.77;;
17564;SDS011;62994;52.126;5.596;2023-06-14T12:42:40;1.60;;;1.50;;
17564;SDS011;62994;52.126;5.596;2023-06-14T12:45:08;1.45;;;1.35;;
17564;SDS011;62994;52.126;5.596;2023-06-14T12:47:36;2.53;;;1.55;;
17564;SDS011;62994;52.126;5.596;2023-06-14T12:50:03;3.30;;;1.63;;
17564;SDS011;62994;52.126;5.596;2023-06-14T12:52:31;2.50;;;1.67;;
17564;SDS011;62994;52.126;5.596;2023-06-14T12:55:01;2.50;;;1.63;;
17564;SDS011;62994;52.126;5.596;2023-06-14T12:57:30;1.60;;;1.50;;
17564;SDS011;62994;52.126;5.596;2023-06-14T12:59:59;2.45;;;1.50;;
17564;SDS011;62994;52.126;5.596;2023-06-14T13:02:26;3.97;;;1.65;;
17564;SDS011;62994;52.126;5.596;2023-06-14T13:04:54;2.47;;;1.80;;
17564;SDS011;62994;52.126;5.596;2023-06-14T13:07:22;1.40;;;1.40;;
17564;SDS011;62994;52.126;5.596;2023-06-14T13:09:49;1.80;;;1.70;;
17564;SDS011;62994;52.126;5.596;2023-06-14T13:12:18;2.60;;;1.60;;
17564;SDS011;62994;52.126;5.596;2023-06-14T13:14:46;4.07;;;1.50;;
17564;SDS011;62994;52.126;5.596;2023-06-14T13:17:13;1.52;;;1.35;;
17564;SDS011;62994;52.126;5.596;2023-06-14T13:19:44;2.33;;;1.48;;
17564;SDS011;62994;52.126;5.596;2023-06-14T13:22:16;5.00;;;1.40;;
17564;SDS011;62994;52.126;5.596;2023-06-14T13:24:43;1.85;;;1.75;;
17564;SDS011;62994;52.126;5.596;2023-06-14T13:27:10;1.50;;;1.40;;
17564;SDS011;62994;52.126;5.596;2023-06-14T13:29:39;1.50;;;1.50;;
17564;SDS011;62994;52.126;5.596;2023-06-14T13:32:08;1.17;;;1.17;;
17564;SDS011;62994;52.126;5.596;2023-06-14T13:34:35;2.97;;;1.40;;
17564;SDS011;62994;52.126;5.596;2023-06-14T13:37:02;1.83;;;1.70;;
17564;SDS011;62994;52.126;5.596;2023-06-14T13:39:29;1.60;;;1.50;;
17564;SDS011;62994;52.126;5.596;2023-06-14T13:41:56;1.60;;;1.50;;
17564;SDS011;62994;52.126;5.596;2023-06-14T13:44:23;3.05;;;1.30;;
17564;SDS011;62994;52.126;5.596;2023-06-14T13:46:50;3.42;;;1.35;;
17564;SDS011;62994;52.126;5.596;2023-06-14T13:49:19;2.25;;;1.25;;
17564;SDS011;62994;52.126;5.596;2023-06-14T13:51:46;3.30;;;1.30;;
17564;SDS011;62994;52.126;5.596;2023-06-14T13:54:14;1.98;;;1.17;;
17564;SDS011;62994;52.126;5.596;2023-06-14T13:56:41;2.08;;;1.10;;
17564;SDS011;62994;52.126;5.596;2023-06-14T13:59:11;4.35;;;1.10;;
17564;SDS011;62994;52.126;5.596;2023-06-14T14:01:39;1.30;;;1.25;;
17564;SDS011;62994;52.126;5.596;2023-06-14T14:04:06;2.35;;;1.17;;
17564;SDS011;62994;52.126;5.596;2023-06-14T14:06:34;3.83;;;1.27;;
17564;SDS011;62994;52.126;5.596;2023-06-14T14:09:01;2.92;;;1.30;;
17564;SDS011;62994;52.126;5.596;2023-06-14T14:11:29;4.63;;;1.17;;
17564;SDS011;62994;52.126;5.596;2023-06-14T14:13:57;1.10;;;1.00;;
17564;SDS011;62994;52.126;5.596;2023-06-14T14:16:24;3.42;;;1.05;;
17564;SDS011;62994;52.126;5.596;2023-06-14T14:18:51;5.20;;;1.30;;
17564;SDS011;62994;52.126;5.596;2023-06-14T14:21:18;1.20;;;1.20;;
17564;SDS011;62994;52.126;5.596;2023-06-14T14:23:46;2.03;;;1.05;;
17564;SDS011;62994;52.126;5.596;2023-06-14T14:26:15;1.20;;;1.20;;
17564;SDS011;62994;52.126;5.596;2023-06-14T14:28:48;3.50;;;1.17;;
17564;SDS011;62994;52.126;5.596;2023-06-14T14:31:16;3.03;;;1.20;;
17564;SDS011;62994;52.126;5.596;2023-06-14T14:33:43;1.00;;;1.00;;
17564;SDS011;62994;52.126;5.596;2023-06-14T14:36:10;1.33;;;1.00;;
17564;SDS011;62994;52.126;5.596;2023-06-14T14:38:38;1.23;;;1.00;;
17564;SDS011;62994;52.126;5.596;2023-06-14T14:41:07;2.95;;;1.20;;
17564;SDS011;62994;52.126;5.596;2023-06-14T14:43:34;1.35;;;1.20;;
17564;SDS011;62994;52.126;5.596;2023-06-14T14:46:01;4.50;;;1.38;;
17564;SDS011;62994;52.126;5.596;2023-06-14T14:48:28;1.98;;;1.23;;
17564;SDS011;62994;52.126;5.596;2023-06-14T14:50:55;2.20;;;1.83;;
17564;SDS011;62994;52.126;5.596;2023-06-14T14:53:22;1.20;;;0.95;;
17564;SDS011;62994;52.126;5.596;2023-06-14T14:55:50;1.92;;;1.30;;
17564;SDS011;62994;52.126;5.596;2023-06-14T14:58:18;5.82;;;1.42;;
17564;SDS011;62994;52.126;5.596;2023-06-14T15:00:46;0.90;;;0.90;;
17564;SDS011;62994;52.126;5.596;2023-06-14T15:03:13;2.22;;;1.00;;
17564;SDS011;62994;52.126;5.596;2023-06-14T15:05:40;1.20;;;1.10;;
17564;SDS011;62994;52.126;5.596;2023-06-14T15:08:08;3.22;;;1.20;;
17564;SDS011;62994;52.126;5.596;2023-06-14T15:10:37;1.00;;;1.00;;